createdAt,value
2022-12-23T00:01:32.633Z,31.53
2022-12-23T00:04:01.562Z,32.47
2022-12-23T00:06:32.674Z,31.87
2022-12-23T00:09:01.777Z,33.30
2022-12-23T00:11:31.001Z,31.60
2022-12-23T00:14:18.481Z,30.83
2022-12-23T00:16:50.858Z,32.47
2022-12-23T00:19:20.018Z,31.43
2022-12-23T00:21:51.257Z,31.30
2022-12-23T00:24:19.772Z,30.40
2022-12-23T00:26:49.340Z,30.17
2022-12-23T00:29:18.437Z,30.30
2022-12-23T00:31:47.380Z,31.13
2022-12-23T00:34:16.776Z,30.07
2022-12-23T00:36:45.536Z,30.57
2022-12-23T00:39:29.376Z,29.73
2022-12-23T00:42:11.421Z,30.10
2022-12-23T00:44:40.163Z,29.33
2022-12-23T00:47:28.831Z,29.50
2022-12-23T00:49:56.385Z,28.87
2022-12-23T00:52:26.772Z,29.90
2022-12-23T00:54:57.833Z,30.30
2022-12-23T00:57:29.104Z,28.13
2022-12-23T00:59:57.782Z,28.93
2022-12-23T01:02:39.538Z,30.20
2022-12-23T01:05:35.790Z,29.77
2022-12-23T01:08:05.100Z,28.00
2022-12-23T01:10:36.495Z,26.17
2022-12-23T01:13:05.691Z,29.80
2022-12-23T01:15:35.168Z,28.67
2022-12-23T01:18:04.302Z,28.17
2022-12-23T01:20:32.884Z,26.90
2022-12-23T01:23:01.840Z,28.47
2022-12-23T01:25:31.689Z,30.10
2022-12-23T01:28:05.367Z,29.73
2022-12-23T01:30:34.319Z,26.42
2022-12-23T01:33:03.046Z,27.17
2022-12-23T01:35:33.137Z,27.13
2022-12-23T01:38:03.288Z,26.33
2022-12-23T01:40:36.872Z,23.50
2022-12-23T01:43:05.999Z,23.80
2022-12-23T01:45:35.795Z,21.77
2022-12-23T01:48:09.628Z,21.07
2022-12-23T01:50:42.712Z,20.92
2022-12-23T01:53:16.401Z,20.07
2022-12-23T01:55:50.607Z,20.43
2022-12-23T01:58:25.154Z,18.73
2022-12-23T02:01:08.650Z,17.87
2022-12-23T02:03:46.256Z,18.35
2022-12-23T02:06:31.760Z,15.73
2022-12-23T02:09:13.732Z,15.47
2022-12-23T02:12:07.964Z,14.00
2022-12-23T02:15:08.033Z,14.23
2022-12-23T02:17:47.495Z,12.70
2022-12-23T02:20:50.070Z,13.20
2022-12-23T02:23:54.317Z,12.97
2022-12-23T02:26:46.432Z,13.25
2022-12-23T02:29:41.353Z,12.30
2022-12-23T02:32:19.424Z,11.83
2022-12-23T02:34:54.569Z,11.63
2022-12-23T02:37:30.330Z,11.50
2022-12-23T02:40:06.755Z,10.83
2022-12-23T02:42:42.255Z,11.85
2022-12-23T02:45:15.863Z,9.97
2022-12-23T02:47:52.086Z,12.32
2022-12-23T02:50:26.952Z,10.17
2022-12-23T02:52:58.165Z,10.45
2022-12-23T02:55:30.875Z,10.93
2022-12-23T02:58:03.936Z,10.03
2022-12-23T03:00:34.208Z,10.17
2022-12-23T03:03:05.325Z,9.43
2022-12-23T03:05:38.581Z,9.63
2022-12-23T03:08:10.102Z,9.27
2022-12-23T03:10:48.449Z,9.90
2022-12-23T03:13:29.546Z,9.35
2022-12-23T03:16:10.795Z,10.00
2022-12-23T03:18:52.629Z,9.48
2022-12-23T03:21:28.987Z,9.48
2022-12-23T03:24:09.598Z,9.10
2022-12-23T03:26:42.479Z,9.82
2022-12-23T03:29:17.184Z,10.30
2022-12-23T03:31:48.006Z,9.83
2022-12-23T03:34:23.452Z,9.80
2022-12-23T03:36:58.638Z,10.23
2022-12-23T03:39:33.587Z,10.65
2022-12-23T03:42:07.228Z,10.90
2022-12-23T03:44:39.483Z,9.97
2022-12-23T03:47:12.454Z,10.83
2022-12-23T03:49:47.417Z,10.37
2022-12-23T03:52:21.473Z,10.50
2022-12-23T03:54:54.901Z,9.40
2022-12-23T03:57:27.788Z,11.23
2022-12-23T03:59:57.956Z,11.03
2022-12-23T04:02:35.464Z,10.93
2022-12-23T04:05:20.655Z,11.97
2022-12-23T04:07:55.912Z,10.93
2022-12-23T04:10:25.968Z,11.35
2022-12-23T04:12:55.054Z,11.80
2022-12-23T04:15:25.494Z,11.00
2022-12-23T04:17:56.479Z,11.35
2022-12-23T04:20:27.873Z,12.52
2022-12-23T04:22:57.373Z,11.60
2022-12-23T04:25:26.153Z,11.90
2022-12-23T04:27:54.940Z,12.60
2022-12-23T04:30:26.708Z,13.68
2022-12-23T04:33:00.455Z,11.57
2022-12-23T04:35:32.562Z,12.02
2022-12-23T04:38:01.381Z,11.20
2022-12-23T04:40:30.503Z,11.90
2022-12-23T04:42:59.392Z,12.87
2022-12-23T04:45:28.649Z,13.30
2022-12-23T04:47:57.983Z,13.73
2022-12-23T04:50:26.789Z,14.20
2022-12-23T04:52:59.211Z,13.83
2022-12-23T04:55:28.279Z,13.57
2022-12-23T04:57:57.011Z,12.20
2022-12-23T05:00:26.016Z,13.30
2022-12-23T05:02:54.867Z,13.35
2022-12-23T05:05:24.210Z,13.65
2022-12-23T05:07:53.353Z,13.17
2022-12-23T05:10:24.060Z,14.48
2022-12-23T05:12:53.293Z,13.57
2022-12-23T05:15:21.996Z,10.90
2022-12-23T05:17:51.017Z,14.97
2022-12-23T05:20:19.703Z,15.03
2022-12-23T05:22:48.655Z,66.43
2022-12-23T05:25:18.053Z,14.88
2022-12-23T05:27:49.184Z,23.60
2022-12-23T05:30:18.292Z,24.30
2022-12-23T05:32:46.740Z,19.40
2022-12-23T05:35:15.560Z,19.23
2022-12-23T05:37:45.192Z,19.37
2022-12-23T05:40:18.480Z,20.38
2022-12-23T05:42:53.001Z,26.33
2022-12-23T05:45:22.170Z,23.35
2022-12-23T05:47:50.808Z,23.90
2022-12-23T05:50:20.109Z,21.83
2022-12-23T05:52:50.592Z,17.77
2022-12-23T05:55:25.329Z,18.08
2022-12-23T05:57:56.987Z,16.05
2022-12-23T06:00:27.015Z,15.43
2022-12-23T06:02:56.702Z,15.90
2022-12-23T06:05:25.835Z,15.18
2022-12-23T06:07:57.099Z,15.35
2022-12-23T06:10:25.974Z,17.25
2022-12-23T06:12:56.967Z,16.70
2022-12-23T06:15:25.893Z,16.52
2022-12-23T06:17:54.520Z,16.95
2022-12-23T06:20:24.613Z,18.10
2022-12-23T06:22:53.496Z,20.00
2022-12-23T06:25:23.659Z,22.63
2022-12-23T06:27:52.454Z,18.75
2022-12-23T06:30:25.810Z,20.03
2022-12-23T06:32:54.719Z,19.07
2022-12-23T06:35:24.100Z,22.33
2022-12-23T06:37:55.459Z,20.27
2022-12-23T06:40:24.360Z,25.50
2022-12-23T06:42:54.263Z,32.78
2022-12-23T06:45:25.222Z,31.90
2022-12-23T06:47:54.414Z,24.90
2022-12-23T06:50:23.180Z,22.83
2022-12-23T06:52:51.896Z,21.83
2022-12-23T06:55:20.484Z,21.77
2022-12-23T06:57:49.302Z,22.67
2022-12-23T07:00:21.735Z,22.38
2022-12-23T07:02:55.178Z,22.67
2022-12-23T07:05:24.755Z,22.93
2022-12-23T07:07:54.591Z,22.67
2022-12-23T07:10:23.298Z,23.80
2022-12-23T07:12:52.317Z,21.03
2022-12-23T07:15:20.831Z,32.47
2022-12-23T07:17:49.516Z,24.73
2022-12-23T07:20:20.337Z,25.50
2022-12-23T07:22:49.762Z,25.33
2022-12-23T07:25:19.288Z,24.70
2022-12-23T07:27:48.384Z,23.80
2022-12-23T07:30:19.169Z,24.37
2022-12-23T07:32:49.597Z,21.83
2022-12-23T07:35:21.390Z,23.63
2022-12-23T07:37:55.179Z,23.57
2022-12-23T07:40:24.980Z,22.75
2022-12-23T07:42:57.858Z,23.23
2022-12-23T07:45:27.530Z,22.90
2022-12-23T07:47:56.843Z,24.20
2022-12-23T07:50:28.448Z,25.38
2022-12-23T07:52:57.532Z,26.60
2022-12-23T07:55:26.061Z,27.03
2022-12-23T07:57:55.158Z,24.27
2022-12-23T08:00:24.455Z,25.23
2022-12-23T08:02:53.813Z,24.63
2022-12-23T08:05:22.470Z,25.83
2022-12-23T08:07:54.384Z,24.63
2022-12-23T08:10:23.469Z,27.02
2022-12-23T08:12:52.456Z,23.35
2022-12-23T08:15:21.086Z,26.67
2022-12-23T08:17:49.501Z,26.63
2022-12-23T08:20:18.521Z,24.30
2022-12-23T08:22:47.217Z,28.20
2022-12-23T08:25:18.324Z,26.25
2022-12-23T08:27:47.382Z,25.65
2022-12-23T08:30:16.944Z,24.83
2022-12-23T08:32:46.117Z,25.27
2022-12-23T08:35:14.951Z,30.02
2022-12-23T08:37:45.208Z,28.08
2022-12-23T08:40:14.338Z,39.10
2022-12-23T08:42:45.005Z,31.50
2022-12-23T08:45:15.592Z,26.00
2022-12-23T08:47:44.564Z,23.20
2022-12-23T08:50:13.488Z,26.25
2022-12-23T08:52:42.813Z,24.05
2022-12-23T08:55:11.576Z,24.02
2022-12-23T08:57:40.644Z,22.95
2022-12-23T09:00:13.949Z,23.25
2022-12-23T09:02:42.951Z,31.05
2022-12-23T09:05:11.861Z,26.13
2022-12-23T09:07:41.018Z,24.98
2022-12-23T09:10:12.497Z,23.67
2022-12-23T09:12:43.048Z,23.98
2022-12-23T09:15:17.101Z,25.85
2022-12-23T09:17:46.762Z,26.75
2022-12-23T09:20:15.635Z,27.48
2022-12-23T09:22:44.500Z,28.80
2022-12-23T09:25:14.440Z,26.55
2022-12-23T09:27:43.424Z,26.23
2022-12-23T09:30:16.072Z,26.05
2022-12-23T09:32:45.142Z,27.95
2022-12-23T09:35:13.970Z,26.73
2022-12-23T09:37:43.407Z,26.42
2022-12-23T09:40:14.800Z,25.90
2022-12-23T09:42:57.444Z,25.10
2022-12-23T09:45:52.027Z,25.70
2022-12-23T09:48:25.673Z,25.47
2022-12-23T09:50:55.327Z,26.13
2022-12-23T09:53:29.006Z,26.02
2022-12-23T09:56:03.778Z,27.23
2022-12-23T09:58:40.476Z,25.70
2022-12-23T10:01:24.834Z,27.70
2022-12-23T10:04:11.804Z,29.17
2022-12-23T10:06:43.275Z,30.48
2022-12-23T10:09:15.419Z,29.27
2022-12-23T10:11:49.149Z,30.98
2022-12-23T10:14:21.355Z,30.03
2022-12-23T10:16:57.441Z,27.43
2022-12-23T10:19:32.156Z,29.40
2022-12-23T10:22:06.038Z,28.33
2022-12-23T10:24:40.665Z,29.10
2022-12-23T10:27:24.993Z,27.85
2022-12-23T10:29:54.842Z,29.02
2022-12-23T10:32:36.852Z,28.35
2022-12-23T10:35:12.771Z,29.05
2022-12-23T10:37:47.176Z,33.38
2022-12-23T10:40:24.546Z,30.07
2022-12-23T10:43:02.270Z,30.07
2022-12-23T10:45:42.537Z,28.87
2022-12-23T10:48:29.459Z,27.33
2022-12-23T10:51:04.583Z,27.88
2022-12-23T10:53:42.846Z,25.50
2022-12-23T10:56:12.075Z,27.93
2022-12-23T10:58:47.735Z,28.00
2022-12-23T11:01:26.528Z,30.20
2022-12-23T11:04:16.606Z,28.77
2022-12-23T11:06:55.806Z,27.07
2022-12-23T11:09:42.524Z,29.90
2022-12-23T11:12:14.584Z,26.60
2022-12-23T11:14:53.440Z,28.17
2022-12-23T11:17:24.660Z,30.17
2022-12-23T11:20:14.702Z,27.27
2022-12-23T11:22:50.309Z,27.67
2022-12-23T11:25:32.291Z,27.00
2022-12-23T11:28:05.063Z,26.97
2022-12-23T11:30:37.983Z,29.13
2022-12-23T11:33:07.873Z,27.10
2022-12-23T11:35:39.411Z,26.83
2022-12-23T11:38:16.065Z,26.38
2022-12-23T11:40:49.032Z,26.97
2022-12-23T11:43:21.070Z,32.55
2022-12-23T11:45:49.914Z,26.33
2022-12-23T11:48:32.757Z,26.42
2022-12-23T11:51:06.247Z,27.58
2022-12-23T11:53:37.203Z,24.90
2022-12-23T11:56:11.411Z,23.17
2022-12-23T11:58:47.418Z,24.90
2022-12-23T12:01:20.085Z,24.83
2022-12-23T12:03:58.564Z,25.93
2022-12-23T12:06:30.627Z,25.20
2022-12-23T12:09:02.754Z,24.57
2022-12-23T12:11:41.685Z,25.77
2022-12-23T12:14:21.397Z,26.37
2022-12-23T12:17:00.581Z,25.50
2022-12-23T12:19:35.288Z,25.70
2022-12-23T12:22:15.582Z,25.15
2022-12-23T12:24:49.964Z,26.88
2022-12-23T12:27:22.755Z,24.77
2022-12-23T12:29:57.766Z,22.95
2022-12-23T12:32:38.221Z,23.67
2022-12-23T12:35:18.406Z,22.90
2022-12-23T12:37:54.875Z,23.38
2022-12-23T12:40:32.990Z,24.33
2022-12-23T12:43:13.028Z,22.20
2022-12-23T12:45:49.526Z,22.03
2022-12-23T12:48:32.416Z,23.77
2022-12-23T12:51:06.164Z,26.63
2022-12-23T12:53:52.101Z,25.07
2022-12-23T12:57:10.419Z,27.08
2022-12-23T12:59:47.290Z,26.58
2022-12-23T13:02:46.540Z,25.75
2022-12-23T13:06:29.330Z,26.35
2022-12-23T13:09:03.937Z,26.20
2022-12-23T13:11:44.583Z,24.83
2022-12-23T13:14:33.764Z,27.03
2022-12-23T13:17:31.541Z,25.43
2022-12-23T13:20:25.563Z,26.23
2022-12-23T13:23:43.364Z,26.80
2022-12-23T13:26:35.006Z,24.98
2022-12-23T13:33:16.824Z,27.10
2022-12-23T13:36:06.136Z,25.17
2022-12-23T13:38:59.865Z,25.67
2022-12-23T13:41:34.521Z,23.33
2022-12-23T13:44:05.294Z,23.10
2022-12-23T13:46:48.592Z,26.83
2022-12-23T13:49:26.967Z,24.00
2022-12-23T13:52:05.401Z,22.92
2022-12-23T13:54:48.415Z,23.27
2022-12-23T13:57:30.727Z,24.03
2022-12-23T14:01:07.469Z,25.02
2022-12-23T14:03:39.110Z,25.00
2022-12-23T14:06:23.441Z,24.73
2022-12-23T14:08:53.873Z,28.00
2022-12-23T14:11:31.751Z,27.60
2022-12-23T14:14:04.504Z,27.17
2022-12-23T14:16:53.683Z,26.92
2022-12-23T14:19:37.743Z,28.17
2022-12-23T14:22:24.021Z,26.88
2022-12-23T14:25:26.429Z,27.87
2022-12-23T14:28:03.805Z,27.75
2022-12-23T14:30:38.361Z,25.87
2022-12-23T14:33:18.822Z,29.00
2022-12-23T14:35:55.966Z,27.53
2022-12-23T14:38:33.056Z,28.55
2022-12-23T14:41:26.900Z,27.63
2022-12-23T14:43:59.271Z,26.58
2022-12-23T14:47:00.396Z,29.88
2022-12-23T14:49:45.911Z,28.00
2022-12-23T14:52:50.411Z,29.75
2022-12-23T14:55:55.303Z,30.27
2022-12-23T14:58:41.304Z,29.13
2022-12-23T15:01:13.910Z,28.30
2022-12-23T15:04:01.283Z,28.98
2022-12-23T15:06:37.094Z,28.67
2022-12-23T15:09:08.151Z,27.80
2022-12-23T15:11:38.347Z,27.37
2022-12-23T15:14:18.570Z,28.27
2022-12-23T15:16:47.800Z,27.92
2022-12-23T15:19:27.583Z,28.33
2022-12-23T15:22:20.667Z,28.20
2022-12-23T15:24:51.775Z,31.30
2022-12-23T15:27:30.312Z,29.33
2022-12-23T15:30:00.100Z,30.17
2022-12-23T15:32:31.183Z,30.95
2022-12-23T15:35:06.295Z,30.70
2022-12-23T15:37:36.269Z,30.35
2022-12-23T15:40:13.172Z,30.47
2022-12-23T15:42:49.121Z,31.30
2022-12-23T15:45:34.364Z,28.63
2022-12-23T15:48:04.400Z,28.45
2022-12-23T15:50:42.975Z,28.90
2022-12-23T15:53:17.193Z,29.23
2022-12-23T15:55:48.005Z,29.17
2022-12-23T15:58:25.517Z,28.57
2022-12-23T16:00:57.145Z,28.87
2022-12-23T16:03:32.190Z,28.65
2022-12-23T16:06:12.765Z,28.13
2022-12-23T16:08:42.075Z,28.93
2022-12-23T16:11:16.759Z,28.07
2022-12-23T16:13:58.844Z,29.17
2022-12-23T16:16:41.591Z,28.03
2022-12-23T16:19:42.079Z,28.03
2022-12-23T16:22:35.256Z,26.70
2022-12-23T16:25:19.395Z,25.70
2022-12-23T16:27:50.640Z,28.73
2022-12-23T16:30:23.627Z,26.63
2022-12-23T16:32:58.122Z,25.60
2022-12-23T16:35:39.204Z,28.63
2022-12-23T16:38:18.125Z,26.27
2022-12-23T16:40:48.815Z,27.30
2022-12-23T16:43:18.356Z,25.33
2022-12-23T16:45:50.764Z,24.80
2022-12-23T16:48:27.116Z,23.30
2022-12-23T16:50:56.241Z,21.20
2022-12-23T16:53:28.179Z,21.27
2022-12-23T16:56:00.792Z,18.73
2022-12-23T16:58:30.443Z,18.63
2022-12-23T17:00:59.290Z,18.70
2022-12-23T17:03:29.152Z,19.37
2022-12-23T17:05:57.799Z,20.07
2022-12-23T17:08:28.448Z,19.43
2022-12-23T17:10:58.004Z,20.60
2022-12-23T17:13:26.451Z,21.37
2022-12-23T17:15:55.122Z,21.73
2022-12-23T17:18:23.739Z,22.80
2022-12-23T17:20:52.566Z,23.33
2022-12-23T17:23:31.978Z,22.40
2022-12-23T17:26:01.168Z,21.30
2022-12-23T17:28:32.706Z,23.97
2022-12-23T17:31:08.672Z,23.83
2022-12-23T17:33:41.346Z,21.50
2022-12-23T17:36:12.016Z,20.40
2022-12-23T17:38:43.062Z,18.50
2022-12-23T17:41:28.899Z,21.90
2022-12-23T17:43:57.929Z,21.93
2022-12-23T17:46:27.171Z,24.53
2022-12-23T17:48:56.599Z,23.37
2022-12-23T17:51:28.767Z,25.13
2022-12-23T17:54:00.100Z,23.30
2022-12-23T17:56:30.469Z,25.67
2022-12-23T17:59:00.151Z,24.33
2022-12-23T18:01:35.127Z,20.00
2022-12-23T18:04:06.537Z,19.87
2022-12-23T18:06:38.047Z,22.33
2022-12-23T18:09:08.846Z,21.53
2022-12-23T18:11:41.646Z,22.00
2022-12-23T18:14:17.904Z,22.30
2022-12-23T18:16:47.230Z,18.47
2022-12-23T18:19:20.344Z,18.80
2022-12-23T18:21:50.078Z,16.00
2022-12-23T18:24:21.065Z,13.70
2022-12-23T18:26:51.033Z,13.30
2022-12-23T18:29:20.727Z,13.07
2022-12-23T18:31:52.758Z,11.47
2022-12-23T18:34:22.392Z,14.07
2022-12-23T18:36:52.503Z,13.40
2022-12-23T18:39:26.338Z,11.07
2022-12-23T18:41:55.928Z,10.77
2022-12-23T18:44:25.205Z,10.05
2022-12-23T18:46:54.082Z,10.47
2022-12-23T18:49:23.473Z,11.87
2022-12-23T18:51:52.240Z,12.03
2022-12-23T18:54:23.235Z,12.60
2022-12-23T18:56:52.248Z,11.63
2022-12-23T18:59:30.038Z,12.47
2022-12-23T19:01:59.382Z,11.83
2022-12-23T19:04:31.888Z,10.57
2022-12-23T19:07:00.741Z,11.47
2022-12-23T19:09:31.699Z,11.13
2022-12-23T19:12:00.260Z,11.67
2022-12-23T19:14:29.886Z,13.02
2022-12-23T19:17:02.104Z,12.13
2022-12-23T19:19:35.032Z,12.87
2022-12-23T19:22:04.041Z,13.97
2022-12-23T19:24:35.688Z,13.77
2022-12-23T19:27:05.000Z,11.93
2022-12-23T19:29:33.751Z,13.27
2022-12-23T19:32:04.092Z,13.57
2022-12-23T19:34:35.173Z,14.70
2022-12-23T19:37:05.957Z,13.40
2022-12-23T19:39:46.669Z,15.97
2022-12-23T19:42:20.238Z,17.07
2022-12-23T19:44:54.574Z,16.20
2022-12-23T19:47:25.372Z,15.70
2022-12-23T19:49:54.639Z,15.17
2022-12-23T19:52:32.461Z,15.40
2022-12-23T19:55:16.992Z,14.60
2022-12-23T19:57:49.177Z,14.57
2022-12-23T20:00:31.601Z,14.30
2022-12-23T20:03:11.945Z,15.20
2022-12-23T20:05:41.497Z,14.67
2022-12-23T20:08:13.953Z,15.27
2022-12-23T20:10:50.549Z,14.13
2022-12-23T20:13:22.385Z,15.07
2022-12-23T20:15:51.512Z,13.80
2022-12-23T20:18:20.475Z,13.57
2022-12-23T20:20:56.554Z,14.23
2022-12-23T20:23:28.573Z,12.67
2022-12-23T20:26:02.916Z,12.13
2022-12-23T20:28:35.885Z,12.87
2022-12-23T20:31:12.246Z,13.03
2022-12-23T20:33:43.977Z,12.40
2022-12-23T20:36:31.779Z,13.33
2022-12-23T20:39:07.081Z,12.17
2022-12-23T20:41:49.903Z,12.97
2022-12-23T20:44:35.086Z,12.77
2022-12-23T20:47:07.967Z,12.67
2022-12-23T20:49:37.555Z,13.83
2022-12-23T20:52:12.222Z,15.27
2022-12-23T20:54:41.601Z,13.60
2022-12-23T20:57:18.358Z,14.10
2022-12-23T20:59:54.182Z,13.93
2022-12-23T21:02:26.650Z,14.30
2022-12-23T21:05:00.806Z,15.03
2022-12-23T21:07:38.364Z,13.10
2022-12-23T21:10:16.280Z,12.93
2022-12-23T21:12:52.263Z,13.57
2022-12-23T21:15:23.841Z,13.63
2022-12-23T21:17:56.655Z,13.47
2022-12-23T21:20:31.733Z,13.80
2022-12-23T21:23:08.112Z,14.47
2022-12-23T21:25:39.837Z,14.23
2022-12-23T21:28:27.179Z,14.03
2022-12-23T21:30:58.883Z,15.10
2022-12-23T21:33:28.014Z,14.00
2022-12-23T21:36:01.545Z,14.33
2022-12-23T21:38:39.833Z,14.73
2022-12-23T21:41:12.855Z,7.83
2022-12-23T21:43:45.042Z,9.30
2022-12-23T21:46:18.375Z,8.13
2022-12-23T21:48:52.206Z,8.37
2022-12-23T21:51:40.718Z,8.53
2022-12-23T21:54:14.195Z,6.43
2022-12-23T21:56:52.789Z,6.43
2022-12-23T21:59:34.942Z,6.10
2022-12-23T22:02:11.049Z,5.37
2022-12-23T22:04:44.507Z,5.80
2022-12-23T22:07:17.085Z,4.87
2022-12-23T22:09:49.597Z,4.60
2022-12-23T22:12:19.237Z,4.80
2022-12-23T22:14:54.539Z,5.23
2022-12-23T22:17:25.728Z,4.87
2022-12-23T22:20:13.830Z,5.60
2022-12-23T22:22:44.168Z,5.30
2022-12-23T22:25:13.545Z,5.13
2022-12-23T22:27:42.476Z,5.63
2022-12-23T22:30:14.951Z,4.87
2022-12-23T22:32:45.607Z,4.93
2022-12-23T22:35:15.702Z,5.37
2022-12-23T22:37:45.115Z,4.43
2022-12-23T22:40:15.302Z,4.47
2022-12-23T22:42:44.035Z,3.80
2022-12-23T22:45:16.382Z,4.20
2022-12-23T22:47:47.784Z,3.63
2022-12-23T22:50:17.921Z,4.07
2022-12-23T22:52:46.960Z,3.23
2022-12-23T22:55:16.756Z,4.17
2022-12-23T22:57:48.005Z,2.97
2022-12-23T23:00:21.462Z,3.53
2022-12-23T23:02:55.563Z,4.20
2022-12-23T23:05:24.361Z,3.83
2022-12-23T23:07:58.856Z,3.87
2022-12-23T23:10:33.648Z,3.70
2022-12-23T23:13:04.380Z,3.77
2022-12-23T23:15:40.377Z,3.50
2022-12-23T23:18:10.790Z,3.33
2022-12-23T23:20:42.063Z,3.33
2022-12-23T23:23:15.715Z,3.93
2022-12-23T23:25:51.313Z,3.60
2022-12-23T23:28:38.799Z,3.73
2022-12-23T23:34:05.695Z,3.47
2022-12-23T23:36:36.784Z,4.17
2022-12-23T23:39:08.326Z,3.30
2022-12-23T23:41:40.986Z,3.20
2022-12-23T23:44:14.176Z,3.00
2022-12-23T23:46:51.336Z,3.23
2022-12-23T23:49:20.795Z,3.87
2022-12-23T23:51:50.136Z,3.13
2022-12-23T23:54:35.722Z,3.13
